createdAt,value
2019-03-22T00:02:15.236Z,70.08
2019-03-22T00:04:48.680Z,70.09
2019-03-22T00:07:22.098Z,70.59
2019-03-22T00:09:55.457Z,70.14
2019-03-22T00:12:28.939Z,70.43
2019-03-22T00:15:02.365Z,70.43
2019-03-22T00:17:35.797Z,70.34
2019-03-22T00:20:09.503Z,70.67
2019-03-22T00:22:42.916Z,71.00
2019-03-22T00:25:16.342Z,70.79
2019-03-22T00:27:49.769Z,70.45
2019-03-22T00:30:23.179Z,70.54
2019-03-22T00:32:56.552Z,70.70
2019-03-22T00:35:29.894Z,70.33
2019-03-22T00:38:03.335Z,70.41
2019-03-22T00:40:36.684Z,71.34
2019-03-22T00:43:10.058Z,71.48
2019-03-22T00:45:46.300Z,71.31
2019-03-22T00:48:19.653Z,71.86
2019-03-22T00:50:53.218Z,72.16
2019-03-22T00:53:26.574Z,72.64
2019-03-22T00:56:00.117Z,72.33
2019-03-22T00:58:33.491Z,72.22
2019-03-22T01:01:06.889Z,72.30
2019-03-22T01:03:40.312Z,72.31
2019-03-22T01:06:13.670Z,72.38
2019-03-22T01:08:47.058Z,72.19
2019-03-22T01:11:20.481Z,72.66
2019-03-22T01:13:54.273Z,72.65
2019-03-22T01:16:27.609Z,72.44
2019-03-22T01:19:01.009Z,72.56
2019-03-22T01:21:34.403Z,72.35
2019-03-22T01:24:07.784Z,72.49
2019-03-22T01:26:41.112Z,72.73
2019-03-22T01:29:14.479Z,73.12
2019-03-22T01:31:47.883Z,73.28
2019-03-22T01:34:21.308Z,73.33
2019-03-22T01:36:54.643Z,73.60
2019-03-22T01:39:27.833Z,73.96
2019-03-22T01:42:01.218Z,73.96
2019-03-22T01:44:34.652Z,74.13
2019-03-22T01:47:07.986Z,73.49
2019-03-22T01:49:41.374Z,73.52
2019-03-22T01:52:14.823Z,73.47
2019-03-22T01:54:48.177Z,73.35
2019-03-22T01:57:21.526Z,73.67
2019-03-22T01:59:54.960Z,74.43
2019-03-22T02:02:28.326Z,74.90
2019-03-22T02:05:01.824Z,74.33
2019-03-22T02:07:35.220Z,74.09
2019-03-22T02:10:10.783Z,74.29
2019-03-22T02:12:44.259Z,74.44
2019-03-22T02:15:17.651Z,73.97
2019-03-22T02:17:51.160Z,74.18
2019-03-22T02:20:24.511Z,74.01
2019-03-22T02:22:57.840Z,74.49
2019-03-22T02:25:31.273Z,74.83
2019-03-22T02:28:04.725Z,74.65
2019-03-22T02:30:38.043Z,75.03
2019-03-22T02:33:11.484Z,74.38
2019-03-22T02:35:44.919Z,74.17
2019-03-22T02:38:18.334Z,74.10
2019-03-22T02:40:51.776Z,74.66
2019-03-22T02:43:25.209Z,75.12
2019-03-22T02:45:58.602Z,75.21
2019-03-22T02:48:32.015Z,75.44
2019-03-22T02:51:05.519Z,75.45
2019-03-22T02:53:38.876Z,75.86
2019-03-22T02:56:12.283Z,75.97
2019-03-22T02:58:45.733Z,75.96
2019-03-22T03:01:19.071Z,75.84
2019-03-22T03:03:52.587Z,76.11
2019-03-22T03:06:25.991Z,76.05
2019-03-22T03:08:59.429Z,75.81
2019-03-22T03:11:32.764Z,76.28
2019-03-22T03:14:06.195Z,76.47
2019-03-22T03:16:39.534Z,76.41
2019-03-22T03:19:12.962Z,76.46
2019-03-22T03:21:46.308Z,76.94
2019-03-22T03:24:19.639Z,76.76
2019-03-22T03:26:53.048Z,77.36
2019-03-22T03:29:26.475Z,77.66
2019-03-22T03:31:59.797Z,77.47
2019-03-22T03:34:33.168Z,77.96
2019-03-22T03:37:06.557Z,78.02
2019-03-22T03:39:39.919Z,78.30
2019-03-22T03:42:13.255Z,78.52
2019-03-22T03:44:46.659Z,79.22
2019-03-22T03:47:20.055Z,78.71
2019-03-22T03:49:53.502Z,79.01
2019-03-22T03:52:26.861Z,78.87
2019-03-22T03:55:00.545Z,79.79
2019-03-22T03:57:33.936Z,79.80
2019-03-22T04:00:09.976Z,79.00
2019-03-22T04:02:43.337Z,79.20
2019-03-22T04:05:16.712Z,79.65
2019-03-22T04:07:50.077Z,78.82
2019-03-22T04:10:23.485Z,79.17
2019-03-22T04:12:56.898Z,79.71
2019-03-22T04:15:30.266Z,78.60
2019-03-22T04:18:03.745Z,79.78
2019-03-22T04:20:37.104Z,79.92
2019-03-22T04:23:10.514Z,79.68
2019-03-22T04:25:44.784Z,79.46
2019-03-22T04:28:19.001Z,78.96
2019-03-22T04:30:52.423Z,79.24
2019-03-22T04:33:25.782Z,79.18
2019-03-22T04:35:59.223Z,79.42
2019-03-22T04:38:32.556Z,79.30
2019-03-22T04:41:05.969Z,79.61
2019-03-22T04:43:39.301Z,79.85
2019-03-22T04:46:13.081Z,79.85
2019-03-22T04:48:47.651Z,79.74
2019-03-22T04:51:21.278Z,79.52
2019-03-22T04:53:56.155Z,79.96
2019-03-22T04:56:31.034Z,80.23
2019-03-22T04:59:05.886Z,80.61
2019-03-22T05:01:39.917Z,80.92
2019-03-22T05:04:13.933Z,81.09
2019-03-22T05:06:47.788Z,81.58
2019-03-22T05:09:21.312Z,82.05
2019-03-22T05:11:55.450Z,82.50
2019-03-22T05:14:29.477Z,83.09
2019-03-22T05:17:03.281Z,82.55
2019-03-22T05:19:38.370Z,82.57
2019-03-22T05:22:12.819Z,82.94
2019-03-22T05:24:47.813Z,82.29
2019-03-22T05:27:21.949Z,82.41
2019-03-22T05:29:56.729Z,82.09
2019-03-22T05:32:30.172Z,82.26
2019-03-22T05:35:03.565Z,82.70
2019-03-22T05:37:36.953Z,81.95
2019-03-22T05:40:10.379Z,82.19
2019-03-22T05:42:43.726Z,82.28
2019-03-22T05:45:17.060Z,82.75
2019-03-22T05:47:50.550Z,81.82
2019-03-22T05:50:23.902Z,81.38
2019-03-22T05:52:57.329Z,81.11
2019-03-22T05:55:30.692Z,81.11
2019-03-22T05:58:04.048Z,80.52
2019-03-22T06:00:37.381Z,80.11
2019-03-22T06:03:10.749Z,79.72
2019-03-22T06:05:44.106Z,79.52
2019-03-22T06:08:17.460Z,79.60
2019-03-22T06:10:50.790Z,78.78
2019-03-22T06:13:24.204Z,78.49
2019-03-22T06:15:57.534Z,78.51
2019-03-22T06:18:31.069Z,78.35
2019-03-22T06:21:04.546Z,78.35
2019-03-22T06:23:37.932Z,77.92
2019-03-22T06:26:11.363Z,77.78
2019-03-22T06:28:44.803Z,77.59
2019-03-22T06:31:20.689Z,76.96
2019-03-22T06:33:53.288Z,76.36
2019-03-22T06:36:26.714Z,76.50
2019-03-22T06:39:00.053Z,76.06
2019-03-22T06:41:33.419Z,75.45
2019-03-22T06:44:06.947Z,74.98
2019-03-22T06:46:40.353Z,74.37
2019-03-22T06:49:13.686Z,73.67
2019-03-22T06:51:47.122Z,73.29
2019-03-22T06:54:30.929Z,72.60
2019-03-22T06:56:55.664Z,72.09
2019-03-22T06:59:29.015Z,71.41
2019-03-22T07:02:02.432Z,70.70
2019-03-22T07:04:35.781Z,69.54
2019-03-22T07:07:09.229Z,68.49
2019-03-22T07:09:42.636Z,68.04
2019-03-22T07:12:16.010Z,65.78
2019-03-22T07:14:49.435Z,59.16
2019-03-22T07:17:22.905Z,54.21
2019-03-22T07:19:56.388Z,51.75
2019-03-22T07:22:29.761Z,51.24
2019-03-22T07:25:03.777Z,51.63
2019-03-22T07:27:37.136Z,51.31
2019-03-22T07:30:18.862Z,52.53
2019-03-22T07:32:50.859Z,51.19
2019-03-22T07:35:24.218Z,51.33
2019-03-22T07:37:57.663Z,53.36
2019-03-22T07:40:31.049Z,53.17
2019-03-22T07:43:04.563Z,52.81
2019-03-22T07:45:37.980Z,49.10
2019-03-22T07:48:11.608Z,51.89
2019-03-22T07:50:45.014Z,51.89
2019-03-22T07:53:18.374Z,52.78
2019-03-22T07:55:51.760Z,52.92
2019-03-22T07:58:25.192Z,51.68
2019-03-22T08:00:58.548Z,52.90
2019-03-22T08:03:31.910Z,54.11
2019-03-22T08:06:05.391Z,55.40
2019-03-22T08:08:38.878Z,55.69
2019-03-22T08:11:12.360Z,54.94
2019-03-22T08:13:45.876Z,53.92
2019-03-22T08:16:19.211Z,54.79
2019-03-22T08:18:52.673Z,53.63
2019-03-22T08:21:26.009Z,53.64
2019-03-22T08:23:59.550Z,53.21
2019-03-22T08:26:32.974Z,54.68
2019-03-22T08:29:06.312Z,54.85
2019-03-22T08:31:39.718Z,54.83
2019-03-22T08:34:13.097Z,55.49
2019-03-22T08:36:46.510Z,56.93
2019-03-22T08:39:20.053Z,57.51
2019-03-22T08:41:53.509Z,57.69
2019-03-22T08:44:26.873Z,57.52
2019-03-22T08:47:00.277Z,56.36
2019-03-22T08:49:33.772Z,55.62
2019-03-22T08:52:07.244Z,53.97
2019-03-22T08:54:40.613Z,54.85
2019-03-22T08:57:14.027Z,53.82
2019-03-22T08:59:47.407Z,53.01
2019-03-22T09:02:20.970Z,52.10
2019-03-22T09:04:54.434Z,51.34
2019-03-22T09:07:27.895Z,49.84
2019-03-22T09:10:01.447Z,49.69
2019-03-22T09:12:34.735Z,49.19
2019-03-22T09:15:09.120Z,49.50
2019-03-22T09:17:42.472Z,49.09
2019-03-22T09:20:15.901Z,49.02
2019-03-22T09:22:49.379Z,48.47
2019-03-22T09:25:22.777Z,48.18
2019-03-22T09:27:56.143Z,47.62
2019-03-22T09:30:29.655Z,47.23
2019-03-22T09:33:03.133Z,47.06
2019-03-22T09:35:36.500Z,45.96
2019-03-22T09:38:13.162Z,45.81
2019-03-22T09:40:45.149Z,44.87
2019-03-22T09:43:18.477Z,44.83
2019-03-22T09:45:51.898Z,44.03
2019-03-22T09:48:25.267Z,44.41
2019-03-22T09:50:58.652Z,42.90
2019-03-22T09:53:32.122Z,43.17
2019-03-22T09:56:05.527Z,42.30
2019-03-22T09:58:38.863Z,41.36
2019-03-22T10:01:23.101Z,39.99
2019-03-22T10:03:47.352Z,40.88
2019-03-22T10:06:20.786Z,40.40
2019-03-22T10:08:54.117Z,39.61
2019-03-22T10:11:27.497Z,38.52
2019-03-22T10:14:00.827Z,36.50
2019-03-22T10:16:34.378Z,38.49
2019-03-22T10:19:07.887Z,40.08
2019-03-22T10:21:41.301Z,39.90
2019-03-22T10:24:14.678Z,40.51
2019-03-22T10:26:48.048Z,42.14
2019-03-22T10:29:21.425Z,41.44
2019-03-22T10:31:57.919Z,39.82
2019-03-22T10:34:31.370Z,38.90
2019-03-22T10:37:04.788Z,38.90
2019-03-22T10:39:38.126Z,37.97
2019-03-22T10:42:11.509Z,38.46
2019-03-22T10:44:44.954Z,38.46
2019-03-22T10:47:18.426Z,37.38
2019-03-22T10:49:52.017Z,35.96
2019-03-22T10:52:25.429Z,35.77
2019-03-22T10:55:12.310Z,33.50
2019-03-22T10:57:33.906Z,31.59
2019-03-22T11:00:13.222Z,30.57
2019-03-22T11:02:46.679Z,31.25
2019-03-22T11:05:20.058Z,30.71
2019-03-22T11:07:53.479Z,30.55
2019-03-22T11:10:26.969Z,29.60
2019-03-22T11:13:00.308Z,29.17
2019-03-22T11:15:33.766Z,29.04
2019-03-22T11:18:07.277Z,29.26
2019-03-22T11:20:40.728Z,29.48
2019-03-22T11:23:14.078Z,28.18
2019-03-22T11:25:47.459Z,29.05
2019-03-22T11:28:20.797Z,28.63
2019-03-22T11:30:54.561Z,28.30
2019-03-22T11:33:29.377Z,28.08
2019-03-22T11:36:02.864Z,29.10
2019-03-22T11:38:36.267Z,29.33
2019-03-22T11:41:09.699Z,29.42
2019-03-22T11:43:43.023Z,28.20
2019-03-22T11:46:16.530Z,28.47
2019-03-22T11:48:49.945Z,28.29
2019-03-22T11:51:23.376Z,26.67
2019-03-22T11:53:56.785Z,26.53
2019-03-22T11:56:30.153Z,27.61
2019-03-22T11:59:03.649Z,26.16
2019-03-22T12:01:37.006Z,26.44
2019-03-22T12:04:11.896Z,26.44
2019-03-22T12:06:45.586Z,26.35
2019-03-22T12:09:18.985Z,27.77
2019-03-22T12:11:52.417Z,27.52
2019-03-22T12:14:25.752Z,26.97
2019-03-22T12:16:59.343Z,26.02
2019-03-22T12:19:32.693Z,26.05
2019-03-22T12:22:06.097Z,26.53
2019-03-22T12:24:39.562Z,26.46
2019-03-22T12:27:13.011Z,26.37
2019-03-22T12:29:46.520Z,27.04
2019-03-22T12:32:19.888Z,26.14
2019-03-22T12:34:53.221Z,26.60
2019-03-22T12:37:26.610Z,25.65
2019-03-22T12:40:00.011Z,25.95
2019-03-22T12:42:33.506Z,25.28
2019-03-22T12:45:18.674Z,25.84
2019-03-22T12:47:53.197Z,24.98
2019-03-22T12:50:26.626Z,25.60
2019-03-22T12:53:00.013Z,25.42
2019-03-22T12:55:33.469Z,23.82
2019-03-22T12:58:06.972Z,24.78
2019-03-22T13:00:40.619Z,24.57
2019-03-22T13:03:13.981Z,24.53
2019-03-22T13:05:47.346Z,24.85
2019-03-22T13:08:20.711Z,24.30
2019-03-22T13:10:54.129Z,24.19
2019-03-22T13:13:27.567Z,24.01
2019-03-22T13:16:01.041Z,23.61
2019-03-22T13:18:34.486Z,23.58
2019-03-22T13:21:07.808Z,24.07
2019-03-22T13:23:41.168Z,23.62
2019-03-22T13:26:14.569Z,24.11
2019-03-22T13:28:47.990Z,24.55
2019-03-22T13:31:21.357Z,23.91
2019-03-22T13:33:54.742Z,23.51
2019-03-22T13:36:28.076Z,23.46
2019-03-22T13:39:01.438Z,23.65
2019-03-22T13:41:34.770Z,22.76
2019-03-22T13:44:08.136Z,22.85
2019-03-22T13:46:41.500Z,22.80
2019-03-22T13:49:14.912Z,23.25
2019-03-22T13:51:48.271Z,24.03
2019-03-22T13:54:21.722Z,24.23
2019-03-22T13:56:55.074Z,23.21
2019-03-22T13:59:28.530Z,23.36
2019-03-22T14:02:01.959Z,23.84
2019-03-22T14:04:35.324Z,23.59
2019-03-22T14:07:08.812Z,24.15
2019-03-22T14:09:42.239Z,23.14
2019-03-22T14:12:15.568Z,22.73
2019-03-22T14:14:49.013Z,22.71
2019-03-22T14:17:22.432Z,23.36
2019-03-22T14:19:56.256Z,23.91
2019-03-22T14:22:29.670Z,22.92
2019-03-22T14:25:10.516Z,22.74
2019-03-22T14:27:43.914Z,23.12
2019-03-22T14:30:17.656Z,22.61
2019-03-22T14:32:57.135Z,22.53
2019-03-22T14:35:30.572Z,23.62
2019-03-22T14:38:04.038Z,23.50
2019-03-22T14:40:37.462Z,23.51
2019-03-22T14:43:10.884Z,23.03
2019-03-22T14:45:52.544Z,22.68
2019-03-22T14:48:25.980Z,23.54
2019-03-22T14:50:59.430Z,23.79
2019-03-22T14:53:32.924Z,23.15
2019-03-22T14:56:06.445Z,23.23
2019-03-22T14:58:39.768Z,23.56
2019-03-22T15:01:14.001Z,23.99
2019-03-22T15:03:47.428Z,24.38
2019-03-22T15:06:20.949Z,24.92
2019-03-22T15:08:54.324Z,25.16
2019-03-22T15:11:27.850Z,24.61
2019-03-22T15:14:05.552Z,24.81
2019-03-22T15:16:55.536Z,23.85
2019-03-22T15:19:38.449Z,24.04
2019-03-22T15:22:38.048Z,24.17
2019-03-22T15:25:19.631Z,24.15
2019-03-22T15:27:54.679Z,24.43
2019-03-22T15:30:46.328Z,24.42
2019-03-22T15:33:34.133Z,24.45
2019-03-22T15:36:24.660Z,24.73
2019-03-22T15:39:22.545Z,24.91
2019-03-22T15:41:56.434Z,24.46
2019-03-22T15:44:29.816Z,24.38
2019-03-22T15:47:05.041Z,24.46
2019-03-22T15:49:39.737Z,24.41
2019-03-22T15:52:13.190Z,24.72
2019-03-22T15:54:46.657Z,25.14
2019-03-22T15:57:20.067Z,25.43
2019-03-22T15:59:53.433Z,25.62
2019-03-22T16:02:26.929Z,25.78
2019-03-22T16:05:00.309Z,25.68
2019-03-22T16:07:33.702Z,25.90
2019-03-22T16:10:08.715Z,25.92
2019-03-22T16:12:42.203Z,25.91
2019-03-22T16:15:15.791Z,25.39
2019-03-22T16:17:49.235Z,23.37
2019-03-22T16:20:22.669Z,23.04
2019-03-22T16:22:56.002Z,23.07
2019-03-22T16:25:29.364Z,22.67
2019-03-22T16:28:02.787Z,21.99
2019-03-22T16:30:36.239Z,20.85
2019-03-22T16:33:09.590Z,21.67
2019-03-22T16:35:43.068Z,21.52
2019-03-22T16:38:16.488Z,22.06
2019-03-22T16:40:49.928Z,23.16
2019-03-22T16:43:23.267Z,23.73
2019-03-22T16:45:56.711Z,23.77
2019-03-22T16:48:30.204Z,24.49
2019-03-22T16:51:03.711Z,26.40
2019-03-22T16:53:37.088Z,26.59
2019-03-22T16:56:10.599Z,25.63
2019-03-22T16:58:43.948Z,25.76
2019-03-22T17:01:18.705Z,26.08
2019-03-22T17:03:52.048Z,26.86
2019-03-22T17:06:25.490Z,27.29
2019-03-22T17:09:00.448Z,28.78
2019-03-22T17:11:33.942Z,30.02
2019-03-22T17:14:07.441Z,31.00
2019-03-22T17:16:40.892Z,31.58
2019-03-22T17:19:14.297Z,30.54
2019-03-22T17:21:48.113Z,29.28
2019-03-22T17:24:21.449Z,29.54
2019-03-22T17:26:54.941Z,31.37
2019-03-22T17:29:28.446Z,32.43
2019-03-22T17:32:01.874Z,33.46
2019-03-22T17:34:35.219Z,34.23
2019-03-22T17:37:08.574Z,34.11
2019-03-22T17:39:41.993Z,33.84
2019-03-22T17:42:15.515Z,34.37
2019-03-22T17:44:48.879Z,34.12
2019-03-22T17:47:22.237Z,34.43
2019-03-22T17:49:55.769Z,34.48
2019-03-22T17:52:29.213Z,33.90
2019-03-22T17:55:02.701Z,35.66
2019-03-22T17:57:36.220Z,36.71
2019-03-22T18:00:16.562Z,38.22
2019-03-22T18:02:49.959Z,39.55
2019-03-22T18:05:23.318Z,39.02
2019-03-22T18:07:56.935Z,39.32
2019-03-22T18:10:30.346Z,40.06
2019-03-22T18:13:03.796Z,41.28
2019-03-22T18:15:37.224Z,41.42
2019-03-22T18:18:10.600Z,41.33
2019-03-22T18:20:44.132Z,41.86
2019-03-22T18:23:17.599Z,41.92
2019-03-22T18:25:51.112Z,42.82
2019-03-22T18:28:24.521Z,43.79
2019-03-22T18:30:57.953Z,44.54
2019-03-22T18:33:31.359Z,44.33
2019-03-22T18:36:04.804Z,45.10
2019-03-22T18:38:38.347Z,46.21
2019-03-22T18:41:11.835Z,46.37
2019-03-22T18:43:45.182Z,45.93
2019-03-22T18:46:18.626Z,47.10
2019-03-22T18:48:52.037Z,46.47
2019-03-22T18:51:25.551Z,45.41
2019-03-22T18:53:59.051Z,45.50
2019-03-22T18:56:32.410Z,46.07
2019-03-22T18:59:05.894Z,46.60
2019-03-22T19:01:39.408Z,46.93
2019-03-22T19:04:12.865Z,47.62
2019-03-22T19:06:46.266Z,47.55
2019-03-22T19:09:19.686Z,47.68
2019-03-22T19:11:53.136Z,48.24
2019-03-22T19:14:26.551Z,49.46
2019-03-22T19:17:00.014Z,49.40
2019-03-22T19:19:33.451Z,49.41
2019-03-22T19:22:06.893Z,50.43
2019-03-22T19:24:40.387Z,49.88
2019-03-22T19:27:13.828Z,50.75
2019-03-22T19:29:47.269Z,50.84
2019-03-22T19:32:20.649Z,51.01
2019-03-22T19:34:54.738Z,51.85
2019-03-22T19:37:28.302Z,52.18
2019-03-22T19:40:01.728Z,52.68
2019-03-22T19:42:35.205Z,52.96
2019-03-22T19:45:10.179Z,53.98
2019-03-22T19:47:43.719Z,53.70
2019-03-22T19:50:17.685Z,54.21
2019-03-22T19:52:51.132Z,54.37
2019-03-22T19:55:24.505Z,54.63
2019-03-22T19:57:57.865Z,55.29
2019-03-22T20:00:31.283Z,55.31
2019-03-22T20:03:04.843Z,55.37
2019-03-22T20:05:38.306Z,56.21
2019-03-22T20:08:13.809Z,56.81
2019-03-22T20:10:46.988Z,56.37
2019-03-22T20:13:22.146Z,55.91
2019-03-22T20:15:55.741Z,55.81
2019-03-22T20:18:29.264Z,56.28
2019-03-22T20:21:02.630Z,56.63
2019-03-22T20:23:36.044Z,57.65
2019-03-22T20:26:09.378Z,57.41
2019-03-22T20:28:42.903Z,57.17
2019-03-22T20:31:16.315Z,56.71
2019-03-22T20:33:49.744Z,57.30
2019-03-22T20:36:23.170Z,57.38
2019-03-22T20:38:56.545Z,57.96
2019-03-22T20:41:29.902Z,58.30
2019-03-22T20:44:03.313Z,58.38
2019-03-22T20:46:36.657Z,57.98
2019-03-22T20:49:10.135Z,58.70
2019-03-22T20:51:43.475Z,59.48
2019-03-22T20:54:16.935Z,60.25
2019-03-22T20:56:50.448Z,60.65
2019-03-22T20:59:23.793Z,60.71
2019-03-22T21:01:57.152Z,60.73
2019-03-22T21:04:30.564Z,61.06
2019-03-22T21:07:04.121Z,61.38
2019-03-22T21:09:37.699Z,61.38
2019-03-22T21:12:11.227Z,61.49
2019-03-22T21:14:44.660Z,60.97
2019-03-22T21:17:18.031Z,61.01
2019-03-22T21:19:51.371Z,61.79
2019-03-22T21:22:24.876Z,62.04
2019-03-22T21:24:58.311Z,62.33
2019-03-22T21:27:31.815Z,62.28
2019-03-22T21:30:07.378Z,63.03
2019-03-22T21:32:45.121Z,62.50
2019-03-22T21:35:22.418Z,62.83
2019-03-22T21:37:51.311Z,63.36
2019-03-22T21:40:24.687Z,64.04
2019-03-22T21:42:58.149Z,64.06
2019-03-22T21:45:31.660Z,63.33
2019-03-22T21:48:05.098Z,62.99
2019-03-22T21:50:38.591Z,62.57
2019-03-22T21:53:12.029Z,63.02
2019-03-22T21:55:45.530Z,63.33
2019-03-22T21:58:19.050Z,64.03
2019-03-22T22:00:52.551Z,64.54
2019-03-22T22:03:26.082Z,64.40
2019-03-22T22:05:59.583Z,64.65
2019-03-22T22:08:33.049Z,65.01
2019-03-22T22:11:06.447Z,65.66
2019-03-22T22:13:39.914Z,65.70
2019-03-22T22:16:13.333Z,66.23
2019-03-22T22:18:46.842Z,66.54
2019-03-22T22:21:20.338Z,67.23
2019-03-22T22:23:53.713Z,67.35
2019-03-22T22:26:27.195Z,68.12
2019-03-22T22:29:00.571Z,68.16
2019-03-22T22:31:34.034Z,68.31
2019-03-22T22:34:07.410Z,68.35
2019-03-22T22:36:40.827Z,68.83
2019-03-22T22:39:14.238Z,68.48
2019-03-22T22:41:47.569Z,68.60
2019-03-22T22:44:20.992Z,68.85
2019-03-22T22:46:54.414Z,68.72
2019-03-22T22:49:27.808Z,68.54
2019-03-22T22:52:01.144Z,68.75
2019-03-22T22:54:34.575Z,68.88
2019-03-22T22:57:07.981Z,69.25
2019-03-22T22:59:41.358Z,69.89
2019-03-22T23:02:14.786Z,70.71
2019-03-22T23:04:48.286Z,70.47
2019-03-22T23:07:21.627Z,69.09
2019-03-22T23:09:54.997Z,68.59
2019-03-22T23:12:28.389Z,68.72
2019-03-22T23:15:01.841Z,68.78
2019-03-22T23:17:35.990Z,69.46
2019-03-22T23:20:10.561Z,70.17
2019-03-22T23:22:43.906Z,70.67
2019-03-22T23:25:17.424Z,70.35
2019-03-22T23:27:50.785Z,71.07
2019-03-22T23:30:24.223Z,71.53
2019-03-22T23:32:57.704Z,72.02
2019-03-22T23:35:31.123Z,71.71
2019-03-22T23:38:04.559Z,72.13
2019-03-22T23:40:37.975Z,71.45
2019-03-22T23:43:11.309Z,71.88
2019-03-22T23:45:44.883Z,71.82
2019-03-22T23:48:18.210Z,71.65
2019-03-22T23:50:51.633Z,72.01
2019-03-22T23:53:25.059Z,72.43
2019-03-22T23:55:58.497Z,72.26
2019-03-22T23:58:31.836Z,71.66
